Grand Prairie, TX

11:24 AM CST on December 09, 2016 (GMT -0600)
Grand Prairie High School | | Change Station

Elev 528 ft 32.75 °N, 97.00 °W | Updated 16 seconds ago

Overcast
Overcast
35.8 °F
Feels Like 33 °F
N
3.4
Wind Variable Wind from East
Gusts 4.9 mph

Today
High -- | Low -- °F
--% Chance of Precip.
Yesterday
High -- | Low -- °F
Precip. -- in
Pressure 30.66 in
Visibility 10.0 miles
Clouds Mostly Cloudy 6500 ft
Windchill 33 °F
Dew Point 14 °F
Humidity 40%
Rainfall 0.00 in
Snow Depth Not available.
7:19 AM 5:22 PM
Waxing Gibbous, 75% visible
METAR KGPM 091650Z 08004KT 10SM BKN065 01/M11 A3066
Pressure 30.66 in
Visibility 10.0 miles
Clouds Mostly Cloudy 6500 ft
Windchill 33 °F
Dew Point 14 °F
Humidity 40%
Rainfall 0.00 in
Snow Depth Not available.
7:19 AM 5:22 PM
Waxing Gibbous, 75% visible
METAR KGPM 091650Z 08004KT 10SM BKN065 01/M11 A3066

10-Day Weather Forecast

Almanac

Astronomy

Dec. 09, 2016 Rise Set
Actual Time
Civil Twilight
Nautical Twilight
Astronomical Twilight
Moon
Length of Visible Light
Length of Day
Tomorrow will be .
, % of the Moon is Illuminated

Today's Extremes

State Highs State Lows

Community

WunderPhotos

Upload Photos

1,956,462 photos uploaded!

WunderBlog® & News

Nearby

Air Quality

  Air Quality AQ Index Pollutant
Not available.

Snow Depth

Station Depth Elevation

Earthquake Activity

City Distance Mag. Time & Date
Minimum magnitude displayed is 2.5.

Coastal Water Temperatures

Place Temperature

Stations

Nearby Weather Stations

Station Location Temp. Windchill Dew Point Humidity Wind Precip. Elev Updated Type
                   

Watches & Warnings

There are currently no watches in effect.